Time;durP1;ratioP1;P1;durP2;ratioP2;P2;SDS_P1;SDS_P2;PMS_P1;PMS_P2;Temp;Humidity;BMP_temperature;BMP_pressure;BME280_temperature;BME280_humidity;BME280_pressure;Samples;Min_cycle;Max_cycle;Signal;HPM_P1;HPM_P2
2022/06/15 00:01:16;;;;;;;2.93;1.90;;;23.70;45.00;;;24.16;32.89;98713.16;4854939;28;124655;-91
2022/06/15 00:03:46;;;;;;;1.67;1.57;;;23.70;45.20;;;24.10;33.10;98709.94;4861005;28;123877;-91
2022/06/15 00:06:17;;;;;;;2.63;1.93;;;23.60;45.30;;;24.04;33.16;98711.53;4864328;28;120428;-91
2022/06/15 00:08:46;;;;;;;2.13;1.93;;;23.50;45.50;;;23.99;33.47;98712.78;4864522;28;118616;-90
2022/06/15 00:11:22;;;;;;;1.57;1.47;;;23.50;45.70;;;23.97;33.52;98717.22;4852650;28;123502;-91
2022/06/15 00:13:49;;;;;;;3.27;2.17;;;23.50;45.90;;;23.92;33.83;98709.97;4857981;28;123015;-91
2022/06/15 00:16:17;;;;;;;2.77;2.07;;;23.40;46.00;;;23.88;33.72;98708.34;4849630;28;118604;-91
2022/06/15 00:18:45;;;;;;;2.57;2.10;;;23.40;46.20;;;23.85;33.81;98709.16;4848583;28;119079;-91
2022/06/15 00:21:15;;;;;;;2.57;2.00;;;23.30;46.30;;;23.79;33.74;98712.38;4848590;28;124318;-90
2022/06/15 00:23:41;;;;;;;2.40;2.20;;;23.30;46.50;;;23.75;33.97;98711.59;4860183;28;123759;-90
2022/06/15 00:26:09;;;;;;;3.30;2.10;;;23.20;47.20;;;23.71;34.09;98713.59;4867573;28;118670;-91
2022/06/15 00:28:36;;;;;;;2.70;2.03;;;23.20;46.60;;;23.67;34.09;98720.41;4858321;28;119003;-91
2022/06/15 00:31:04;;;;;;;1.87;1.77;;;23.20;46.80;;;23.62;34.27;98726.47;4851083;28;124346;-90
2022/06/15 00:33:31;;;;;;;3.50;2.23;;;23.10;46.90;;;23.58;34.32;98724.44;4845946;28;122141;-92
2022/06/15 00:36:09;;;;;;;2.70;1.90;;;23.10;47.00;;;23.53;34.43;98715.56;4864652;28;120130;-91
2022/06/15 00:38:39;;;;;;;1.93;1.60;;;23.00;47.10;;;23.48;34.70;98721.59;4855261;28;119135;-92
2022/06/15 00:41:09;;;;;;;2.43;1.93;;;23.00;47.30;;;23.44;34.74;98712.34;4837714;28;125030;-92
2022/06/15 00:43:43;;;;;;;2.93;1.83;;;22.90;47.40;;;23.38;34.95;98709.13;4846503;28;123692;-91
2022/06/15 00:46:22;;;;;;;2.33;1.90;;;22.90;47.60;;;23.32;35.02;98705.06;4856605;28;119340;-90
2022/06/15 00:48:54;;;;;;;2.17;1.97;;;22.80;47.80;;;23.27;34.97;98709.09;4849291;28;118195;-91
2022/06/15 00:51:23;;;;;;;1.70;1.60;;;22.70;47.90;;;23.23;35.06;98699.81;4859399;28;123190;-90
2022/06/15 00:53:51;;;;;;;2.33;2.13;;;22.70;48.10;;;23.20;35.19;98697.00;4846885;28;123769;-92
2022/06/15 00:56:19;;;;;;;2.23;1.70;;;22.70;48.30;;;23.16;35.71;98697.00;4856847;28;119271;-91
2022/06/15 00:58:51;;;;;;;2.13;1.70;;;22.60;48.30;;;23.10;35.88;98692.94;4858178;28;119281;-90
2022/06/15 01:01:18;;;;;;;2.63;2.07;;;22.60;48.50;;;23.05;35.50;98690.50;4860524;28;124118;-91
2022/06/15 01:03:49;;;;;;;2.67;2.27;;;22.50;48.60;;;23.01;35.79;98684.09;4859042;28;123572;-91
2022/06/15 01:06:48;;;;;;;3.70;2.37;;;22.50;48.80;;;22.96;36.08;98681.63;4851544;28;119606;-91
2022/06/15 01:09:21;;;;;;;2.37;2.17;;;22.40;48.90;;;22.89;35.89;98686.03;4857136;28;118268;-91
2022/06/15 01:12:14;;;;;;;2.20;2.00;;;22.40;49.10;;;22.85;36.14;98676.75;4861781;28;123264;-91
2022/06/15 01:15:35;;;;;;;3.37;2.40;;;22.30;49.20;;;22.76;36.34;98667.09;4844374;28;124493;-92
2022/06/15 01:18:32;;;;;;;2.17;1.97;;;22.30;49.40;;;22.70;36.28;98666.63;4852239;28;120081;-91
2022/06/15 01:21:22;;;;;;;2.37;2.03;;;22.20;49.60;;;22.65;36.60;98667.06;4862188;29;118493;-91
2022/06/15 01:25:01;;;;;;;1.80;1.70;;;22.20;49.80;;;22.57;36.80;98665.38;4870928;28;123412;-91
2022/06/15 01:28:03;;;;;;;2.80;2.13;;;22.10;49.80;;;22.50;36.88;98660.53;4844641;28;124116;-91
2022/06/15 01:30:50;;;;;;;2.00;1.67;;;22.10;50.10;;;22.49;37.05;98665.38;4859981;28;120535;-91
2022/06/15 01:33:41;;;;;;;2.03;1.83;;;22.00;50.30;;;22.46;36.91;98666.16;4839619;28;120330;-93
2022/06/15 01:36:51;;;;;;;2.70;1.80;;;21.90;50.30;;;22.45;36.99;98663.72;4853087;28;123979;-91
2022/06/15 01:39:38;;;;;;;3.53;1.87;;;21.90;50.50;;;22.40;37.38;98662.09;4879650;28;123355;-91
2022/06/15 01:42:20;;;;;;;2.00;1.80;;;21.90;50.60;;;22.38;37.22;98660.88;4848900;28;120315;-92
2022/06/15 01:44:54;;;;;;;2.57;1.90;;;21.80;50.70;;;22.35;37.61;98658.84;4852031;28;119002;-91
2022/06/15 01:47:25;;;;;;;3.40;2.07;;;21.80;50.80;;;22.31;37.43;98663.69;4852463;28;123474;-90
2022/06/15 01:50:08;;;;;;;3.50;2.20;;;21.80;50.90;;;22.27;37.52;98669.28;4853624;28;123818;-91
2022/06/15 01:52:59;;;;;;;4.87;2.33;;;21.70;51.00;;;22.22;37.55;98666.84;4848287;28;119753;-91
2022/06/15 01:55:37;;;;;;;3.77;2.03;;;21.70;51.10;;;22.19;37.76;98662.81;4863936;28;119481;-90
2022/06/15 01:58:10;;;;;;;4.77;2.50;;;21.70;51.30;;;22.17;37.85;98668.00;4850339;28;123465;-91
2022/06/15 02:00:37;;;;;;;2.23;1.80;;;21.60;51.30;;;22.14;37.87;98668.78;4845045;28;123612;-91
2022/06/15 02:03:32;;;;;;;2.70;1.97;;;21.60;51.40;;;22.11;38.21;98668.75;4854664;28;119310;-92
2022/06/15 02:06:44;;;;;;;2.90;1.83;;;21.60;51.60;;;22.05;38.05;98665.50;4855436;28;118152;-91
2022/06/15 02:09:57;;;;;;;3.30;2.10;;;21.50;51.60;;;21.98;37.97;98674.72;4854828;28;123976;-89
2022/06/15 02:12:41;;;;;;;2.17;1.93;;;21.50;51.80;;;21.96;38.05;98677.13;4856830;28;124570;-91
2022/06/15 02:15:10;;;;;;;3.10;1.87;;;21.40;51.90;;;21.92;38.57;98665.00;4851370;28;119348;-90
2022/06/15 02:17:45;;;;;;;2.40;2.17;;;21.40;52.70;;;21.91;38.59;98665.44;4854444;28;118851;-90
2022/06/15 02:20:20;;;;;;;2.47;2.20;;;21.40;52.10;;;21.87;38.56;98668.22;4860147;28;124140;-91
2022/06/15 02:22:51;;;;;;;1.70;1.60;;;21.40;52.30;;;21.85;38.42;98676.25;4855055;28;123554;-91
2022/06/15 02:25:22;;;;;;;2.30;1.90;;;21.30;52.30;;;21.80;38.67;98671.78;4844452;28;120317;-91
2022/06/15 02:27:50;;;;;;;2.80;2.20;;;21.30;52.50;;;21.77;38.91;98677.38;4855170;28;120477;-91
2022/06/15 02:30:23;;;;;;;2.23;1.87;;;21.20;52.50;;;21.75;39.00;98671.34;4846763;28;123980;-90
2022/06/15 02:32:51;;;;;;;2.10;1.80;;;21.20;52.70;;;21.70;39.05;98669.69;4854798;28;124530;-90
2022/06/15 02:35:20;;;;;;;3.90;2.30;;;21.20;52.80;;;21.66;39.26;98668.06;4866791;28;118686;-90
2022/06/15 02:37:50;;;;;;;3.33;2.23;;;21.10;52.90;;;21.62;39.16;98668.81;4855174;28;118996;-91
2022/06/15 02:40:21;;;;;;;2.40;2.00;;;21.10;53.10;;;21.58;39.41;98665.19;4860639;28;124083;-92
2022/06/15 02:42:49;;;;;;;2.90;2.10;;;21.10;53.20;;;21.55;39.47;98660.34;4854393;28;123188;-93
2022/06/15 02:45:28;;;;;;;2.50;2.13;;;21.00;53.30;;;21.52;39.53;98657.50;4856928;28;119895;-91
2022/06/15 02:47:55;;;;;;;2.80;2.10;;;21.00;53.40;;;21.45;39.33;98663.88;4856038;28;119011;-90
2022/06/15 02:50:28;;;;;;;2.40;2.20;;;20.90;53.40;;;21.41;39.35;98657.41;4859563;28;123857;-90
2022/06/15 02:53:09;;;;;;;2.40;1.93;;;20.90;53.40;;;21.33;39.66;98658.50;4851665;28;124021;-91
2022/06/15 02:55:38;;;;;;;2.87;2.10;;;20.90;53.60;;;21.25;39.49;98660.47;4845072;28;119228;-91
2022/06/15 02:58:40;;;;;;;2.17;1.97;;;20.80;53.50;;;21.17;39.41;98659.59;4869816;28;118756;-90
2022/06/15 03:01:09;;;;;;;2.00;1.80;;;20.70;54.20;;;21.14;39.96;98654.75;4845123;28;124063;-90
2022/06/15 03:03:37;;;;;;;2.23;2.03;;;20.60;53.70;;;21.12;40.08;98657.13;4852799;28;123072;-90
2022/06/15 03:06:12;;;;;;;2.90;2.37;;;20.60;53.90;;;21.10;39.67;98662.31;4850409;28;119308;-90
2022/06/15 03:08:39;;;;;;;2.83;2.30;;;20.60;54.00;;;21.04;39.86;98658.25;4860078;28;118852;-91
2022/06/15 03:11:07;;;;;;;2.50;2.07;;;20.50;53.90;;;20.98;39.79;98668.22;4855692;28;124517;-90
2022/06/15 03:13:33;;;;;;;3.67;2.30;;;20.50;54.00;;;20.95;40.04;98669.00;4844104;28;123935;-90
2022/06/15 03:16:03;;;;;;;4.17;2.13;;;20.40;54.00;;;20.90;40.34;98664.53;4852750;28;120340;-89
2022/06/15 03:18:49;;;;;;;2.30;1.70;;;20.40;54.40;;;20.88;40.31;98663.31;4854874;28;119968;-90
2022/06/15 03:21:16;;;;;;;2.33;2.13;;;20.40;54.50;;;20.87;40.53;98661.69;4859055;28;124859;-89
2022/06/15 03:23:42;;;;;;;3.23;2.10;;;20.30;54.60;;;20.86;40.50;98668.50;4857351;28;123556;-90
2022/06/15 03:26:09;;;;;;;2.53;2.20;;;20.30;54.80;;;20.86;40.44;98657.25;4871037;28;119847;-89
2022/06/15 03:28:36;;;;;;;3.37;1.93;;;20.30;54.90;;;20.86;40.72;98660.06;4863346;28;119050;-89
2022/06/15 03:31:03;;;;;;;3.40;2.10;;;20.30;55.00;;;20.85;40.64;98653.66;4861184;28;124042;-91
2022/06/15 03:33:31;;;;;;;2.60;2.20;;;20.30;55.10;;;20.85;40.63;98653.66;4866033;28;124105;-88
2022/06/15 03:35:58;;;;;;;2.10;1.90;;;20.30;55.30;;;20.85;40.58;98658.47;4870959;28;118332;-89
2022/06/15 03:38:25;;;;;;;4.53;2.10;;;20.20;55.30;;;20.85;40.85;98655.66;4858060;28;118937;-88
2022/06/15 03:40:52;;;;;;;3.53;2.40;;;20.20;55.30;;;20.84;40.52;98654.03;4851847;28;124242;-89
2022/06/15 03:43:20;;;;;;;2.23;2.03;;;20.20;55.40;;;20.82;41.00;98650.78;4867851;28;123805;-90
2022/06/15 03:45:46;;;;;;;2.50;2.30;;;20.20;55.40;;;20.81;40.72;98654.81;4861125;28;119424;-89
2022/06/15 03:48:13;;;;;;;2.97;2.33;;;20.20;55.50;;;20.78;41.12;98649.97;4864621;28;119978;-88
2022/06/15 03:50:40;;;;;;;2.10;1.90;;;20.20;55.50;;;20.77;40.94;98656.75;4863581;28;124376;-89
2022/06/15 03:53:10;;;;;;;2.63;2.07;;;20.20;55.60;;;20.77;40.81;98662.38;4867259;28;124215;-90
2022/06/15 03:55:37;;;;;;;2.83;2.10;;;20.20;55.60;;;20.78;40.92;98658.38;4871103;28;119344;-89
2022/06/15 03:58:23;;;;;;;4.00;2.53;;;20.20;55.60;;;20.78;40.73;98652.78;4857372;28;119458;-90
2022/06/15 04:00:50;;;;;;;5.20;2.47;;;20.20;55.60;;;20.80;40.76;98656.00;4865335;28;123961;-89
2022/06/15 04:03:19;;;;;;;2.00;1.80;;;20.10;55.60;;;20.84;40.84;98651.22;4854275;28;123208;-91
2022/06/15 04:05:51;;;;;;;2.73;2.27;;;20.20;56.40;;;20.89;40.56;98645.25;4870726;28;120054;-90
2022/06/15 04:08:42;;;;;;;3.27;2.30;;;20.20;55.70;;;20.91;40.68;98648.50;4837934;28;119635;-89
2022/06/15 04:14:01;;;;;;;2.97;2.47;;;20.30;55.80;;;20.93;40.63;98652.53;4878355;28;124871;-89
2022/06/15 04:16:29;;;;;;;2.00;1.80;;;20.30;55.80;;;20.97;40.73;98661.00;4856183;28;119911;-90
2022/06/15 04:18:56;;;;;;;2.80;1.97;;;20.40;55.80;;;20.99;40.75;98652.19;4859449;28;119199;-91
2022/06/15 04:21:25;;;;;;;2.10;1.83;;;20.40;55.90;;;21.00;40.97;98657.41;4876434;28;124011;-90
2022/06/15 04:23:51;;;;;;;2.30;2.10;;;20.40;55.90;;;21.04;40.89;98657.47;4861263;28;124303;-90
2022/06/15 04:26:19;;;;;;;1.83;1.60;;;20.40;55.90;;;21.04;40.95;98655.44;4862730;28;119389;-89
2022/06/15 04:28:46;;;;;;;3.23;2.40;;;20.50;56.00;;;21.08;40.53;98661.09;4862106;28;119075;-91
2022/06/15 04:31:13;;;;;;;4.50;2.43;;;20.50;56.00;;;21.09;40.64;98666.34;4854138;28;124599;-91
2022/06/15 04:33:40;;;;;;;2.10;1.90;;;20.40;55.90;;;21.11;40.77;98666.75;4861776;28;122924;-90
2022/06/15 04:36:07;;;;;;;2.90;2.00;;;20.50;56.00;;;21.13;40.56;98669.97;4855490;28;119354;-91
2022/06/15 04:38:33;;;;;;;3.43;2.47;;;20.50;56.00;;;21.15;40.81;98670.41;4849793;28;119212;-90
2022/06/15 04:41:02;;;;;;;2.87;2.00;;;20.50;56.00;;;21.16;40.85;98674.81;4850039;28;123794;-90
2022/06/15 04:43:29;;;;;;;2.27;2.07;;;20.50;56.00;;;21.18;40.53;98672.44;4854350;28;124633;-89
2022/06/15 04:45:57;;;;;;;5.10;2.73;;;20.50;56.00;;;21.22;40.57;98669.66;4870175;28;119402;-91
2022/06/15 04:48:23;;;;;;;2.50;2.30;;;20.60;56.10;;;21.24;40.70;98678.50;4851953;28;117966;-89
2022/06/15 04:50:50;;;;;;;3.03;2.33;;;22.60;57.90;;;21.26;40.67;98673.31;4862677;28;124314;-89
2022/06/15 04:53:16;;;;;;;4.03;2.30;;;20.60;56.10;;;21.29;40.54;98674.56;4863028;28;122975;-90
2022/06/15 04:55:43;;;;;;;2.57;2.13;;;20.60;56.10;;;21.31;40.82;98680.59;4861391;28;120432;-89
2022/06/15 04:58:10;;;;;;;3.43;2.00;;;20.70;56.20;;;21.32;40.71;98671.75;4847809;28;122529;-90
2022/06/15 05:00:40;;;;;;;2.00;1.80;;;20.70;56.30;;;21.34;40.80;98669.38;4866140;28;124183;-91
2022/06/15 05:03:07;;;;;;;2.70;1.97;;;20.70;56.30;;;21.37;40.71;98673.41;4854340;28;123518;-90
2022/06/15 05:05:36;;;;;;;3.17;2.70;;;20.70;56.30;;;21.40;40.62;98678.28;4867831;28;118908;-90
2022/06/15 05:08:02;;;;;;;3.10;1.73;;;20.80;56.40;;;21.43;40.67;98676.72;4861230;28;119059;-91
2022/06/15 05:10:30;;;;;;;3.10;2.17;;;20.80;56.30;;;21.45;40.45;98683.56;4853190;28;123993;-91
2022/06/15 05:12:57;;;;;;;2.30;1.93;;;20.80;56.30;;;21.49;40.33;98680.78;4870255;28;123490;-90
2022/06/15 05:15:24;;;;;;;4.10;2.20;;;20.80;56.30;;;21.50;40.55;98677.56;4861198;28;119387;-91
2022/06/15 05:17:50;;;;;;;7.20;2.50;;;20.80;56.30;;;21.52;40.67;98683.63;4853340;28;117631;-90
2022/06/15 05:20:18;;;;;;;5.37;2.40;;;20.90;56.30;;;21.54;40.48;98681.22;4852937;28;124041;-89
2022/06/15 05:22:51;;;;;;;3.83;2.10;;;20.90;56.30;;;21.57;40.22;98683.28;4866049;28;122235;-91
2022/06/15 05:25:17;;;;;;;3.20;2.20;;;20.90;56.20;;;21.61;40.02;98678.47;4858257;28;119755;-91
2022/06/15 05:27:44;;;;;;;3.73;2.40;;;20.90;56.20;;;21.67;40.04;98683.72;4862254;28;119013;-92
2022/06/15 05:30:11;;;;;;;5.63;2.53;;;21.00;56.20;;;21.71;40.40;98679.75;4861870;28;124186;-91
2022/06/15 05:32:38;;;;;;;4.40;2.83;;;21.00;56.10;;;21.75;39.75;98676.97;4862170;28;123088;-91
2022/06/15 05:35:05;;;;;;;4.40;3.00;;;21.00;56.00;;;21.77;40.26;98681.00;4862108;28;119919;-92
2022/06/15 05:37:32;;;;;;;6.83;2.67;;;21.10;56.20;;;21.80;39.94;98685.84;4862999;28;119032;-90
2022/06/15 05:39:59;;;;;;;5.27;2.67;;;21.10;56.10;;;21.85;40.20;98679.06;4842656;28;123928;-90
2022/06/15 05:42:28;;;;;;;4.70;2.93;;;21.20;56.20;;;21.89;40.08;98679.88;4848088;28;124240;-91
2022/06/15 05:44:55;;;;;;;4.57;2.67;;;21.20;56.70;;;21.93;40.23;98680.72;4856251;28;120235;-90
2022/06/15 05:47:22;;;;;;;4.10;3.00;;;21.20;56.40;;;21.98;40.51;98677.53;4858805;28;120047;-91
2022/06/15 05:49:49;;;;;;;4.40;2.83;;;21.30;56.60;;;22.04;40.14;98667.53;4858086;28;124109;-92
2022/06/15 05:52:15;;;;;;;6.37;3.23;;;21.30;56.60;;;22.10;40.05;98667.16;4860974;28;123690;-91
2022/06/15 05:54:41;;;;;;;4.83;2.90;;;21.40;56.70;;;22.18;39.88;98663.16;4865980;28;119437;-92
2022/06/15 05:57:23;;;;;;;5.10;3.10;;;21.50;56.80;;;22.24;40.03;98670.06;4866824;28;119220;-93
2022/06/15 05:59:51;;;;;;;6.13;3.40;;;21.50;56.80;;;22.33;40.11;98662.09;4859696;28;124289;-91
2022/06/15 06:02:20;;;;;;;6.70;2.87;;;21.60;56.90;;;22.38;40.22;98664.53;4846567;28;122967;-91
2022/06/15 06:04:47;;;;;;;4.77;2.83;;;21.70;56.80;;;22.45;40.09;98658.91;4861345;28;119320;-92
2022/06/15 06:07:14;;;;;;;6.43;3.70;;;21.70;56.70;;;22.50;39.85;98658.53;4851807;28;119143;-91
2022/06/15 06:09:40;;;;;;;7.27;3.70;;;21.80;56.80;;;22.56;40.10;98666.59;4847260;28;124137;-92
2022/06/15 06:12:08;;;;;;;4.83;3.60;;;23.60;58.30;;;22.63;39.85;98664.63;4851798;28;124556;-90
2022/06/15 06:14:35;;;;;;;4.70;3.30;;;21.90;56.80;;;22.72;40.03;98658.59;4859116;28;119326;-90
2022/06/15 06:17:02;;;;;;;6.70;4.13;;;22.00;56.80;;;22.79;39.83;98661.44;4859698;28;118971;-89
2022/06/15 06:19:28;;;;;;;8.60;4.20;;;22.10;56.80;;;22.84;39.96;98663.88;4853328;28;123849;-90
2022/06/15 06:21:57;;;;;;;7.93;3.57;;;22.10;56.80;;;22.89;39.65;98655.03;4859172;28;123910;-90
2022/06/15 06:24:25;;;;;;;8.47;3.90;;;22.20;56.80;;;22.99;39.51;98663.94;4866195;28;119117;-91
2022/06/15 06:27:05;;;;;;;6.43;4.57;;;22.20;56.80;;;23.07;39.51;98662.75;4865836;28;118507;-90
2022/06/15 06:29:32;;;;;;;5.70;3.50;;;22.40;56.90;;;23.17;39.49;98673.25;4856922;28;123339;-90
2022/06/15 06:32:00;;;;;;;6.53;3.80;;;22.40;56.80;;;23.24;39.27;98670.44;4856759;28;123895;-91
2022/06/15 06:34:31;;;;;;;5.90;3.90;;;22.50;56.70;;;23.33;39.16;98655.94;4859755;28;120287;-91
2022/06/15 06:37:00;;;;;;;5.30;3.70;;;22.50;56.50;;;23.40;39.00;98658.78;4850830;28;119740;-90
2022/06/15 06:39:29;;;;;;;8.30;3.77;;;22.60;56.40;;;23.48;38.88;98653.91;4852053;28;124218;-89
2022/06/15 06:41:59;;;;;;;4.33;3.70;;;22.70;56.30;;;23.53;39.09;98659.97;4851974;28;123806;-88
2022/06/15 06:44:26;;;;;;;4.73;3.17;;;22.80;56.20;;;23.61;38.68;98657.94;4871322;28;119064;-90
2022/06/15 06:46:54;;;;;;;4.63;2.80;;;22.80;56.10;;;23.70;38.71;98666.03;4851938;28;118896;-89
2022/06/15 06:49:23;;;;;;;4.47;2.80;;;22.90;56.00;;;23.77;38.37;98669.66;4846045;29;123165;-90
2022/06/15 06:51:51;;;;;;;4.13;2.60;;;23.00;56.00;;;23.86;38.27;98671.25;4855186;28;123724;-89
2022/06/15 06:54:20;;;;;;;5.37;2.40;;;23.10;55.80;;;23.94;38.22;98667.25;4869241;28;119219;-89
2022/06/15 06:56:48;;;;;;;7.67;3.00;;;23.20;55.80;;;24.03;38.08;98664.78;4865395;28;118922;-90
2022/06/15 06:59:17;;;;;;;2.83;2.30;;;23.20;55.60;;;24.11;38.02;98665.59;4836668;28;123315;-90
2022/06/15 07:01:46;;;;;;;3.60;3.03;;;23.30;55.60;;;24.19;37.81;98661.53;4840141;28;123686;-90
2022/06/15 07:04:14;;;;;;;2.90;2.07;;;23.40;55.50;;;24.28;37.79;98656.25;4855683;28;119475;-90
2022/06/15 07:06:41;;;;;;;2.77;2.40;;;23.50;55.40;;;24.38;37.61;98657.44;4868812;28;119080;-92
2022/06/15 07:09:08;;;;;;;3.20;2.37;;;23.60;55.40;;;24.47;37.41;98655.00;4843525;28;124134;-92
2022/06/15 07:11:35;;;;;;;5.20;2.80;;;23.60;55.20;;;24.55;37.25;98653.75;4861032;28;123735;-90
2022/06/15 07:14:02;;;;;;;4.10;2.87;;;23.70;55.00;;;24.60;37.35;98653.31;4854285;28;118276;-91
2022/06/15 07:16:28;;;;;;;4.30;3.67;;;23.80;54.90;;;24.66;37.16;98659.34;4856870;28;119596;-90
2022/06/15 07:18:55;;;;;;;4.60;3.07;;;23.80;54.80;;;24.71;36.84;98658.13;4851543;28;124479;-89
2022/06/15 07:21:27;;;;;;;5.37;2.63;;;23.90;54.70;;;24.77;36.91;98654.47;4872727;28;123227;-92
2022/06/15 07:23:57;;;;;;;2.80;2.37;;;24.00;54.70;;;24.85;36.76;98653.22;4852291;28;119358;-90
2022/06/15 07:26:36;;;;;;;3.30;2.27;;;24.00;54.60;;;24.95;36.71;98657.19;4845923;28;119535;-93
2022/06/15 07:29:03;;;;;;;3.30;2.70;;;24.10;54.50;;;25.03;36.75;98658.75;4856558;28;124722;-91
2022/06/15 07:31:34;;;;;;;3.70;2.37;;;24.20;54.40;;;25.08;36.28;98652.66;4852397;28;123033;-94
2022/06/15 07:34:02;;;;;;;5.70;2.57;;;24.30;54.30;;;25.17;36.49;98648.59;4856409;28;119843;-92
2022/06/15 07:36:29;;;;;;;4.07;2.63;;;24.30;54.10;;;25.26;36.58;98665.91;4831035;29;118524;-92
2022/06/15 07:38:57;;;;;;;2.77;2.27;;;24.40;54.10;;;25.33;36.13;98654.53;4842239;28;123583;-92
2022/06/15 07:41:26;;;;;;;7.30;4.00;;;24.50;54.00;;;25.39;35.86;98663.38;4854759;28;124346;-93
2022/06/15 07:43:54;;;;;;;5.83;3.67;;;24.60;53.80;;;25.44;36.15;98655.28;4858691;28;118368;-89
2022/06/15 07:46:22;;;;;;;5.40;3.37;;;24.60;53.60;;;25.47;35.61;98651.59;4853539;28;118270;-88
2022/06/15 07:51:40;;;;;;;5.90;2.67;;;24.70;53.30;;;25.57;35.92;98656.34;4861749;28;124520;-90
2022/06/15 07:54:10;;;;;;;3.57;2.80;;;24.80;53.10;;;25.62;35.30;98654.31;4846723;28;119475;-91
2022/06/15 07:56:38;;;;;;;4.30;3.17;;;24.90;53.00;;;25.67;35.52;98653.84;4860900;28;118147;-88
2022/06/15 07:59:06;;;;;;;3.03;2.20;;;24.90;53.60;;;25.73;35.49;98655.00;4849326;28;124323;-92
2022/06/15 08:01:33;;;;;;;4.30;3.37;;;25.00;53.00;;;25.81;35.60;98659.38;4852232;28;123867;-89
2022/06/15 08:04:00;;;;;;;4.40;3.40;;;25.00;53.00;;;25.88;35.44;98662.19;4856668;28;118634;-88
2022/06/15 08:06:29;;;;;;;10.03;4.27;;;25.10;52.80;;;25.89;34.83;98658.13;4843161;28;119110;-88
2022/06/15 08:08:57;;;;;;;8.30;4.13;;;25.10;52.30;;;25.90;34.87;98656.91;4861751;28;123321;-89
2022/06/15 08:11:23;;;;;;;7.80;4.33;;;25.20;52.40;;;25.97;34.97;98664.50;4855887;28;123732;-87
2022/06/15 08:13:50;;;;;;;8.10;4.20;;;25.20;52.50;;;26.04;34.87;98663.66;4843994;28;121401;-85
2022/06/15 08:16:19;;;;;;;9.37;4.13;;;25.30;52.50;;;26.11;34.73;98666.38;4855926;28;119238;-88
2022/06/15 08:18:54;;;;;;;16.20;5.63;;;25.30;52.40;;;26.14;34.96;98657.06;4865056;28;124153;-88
2022/06/15 08:21:29;;;;;;;21.20;7.60;;;25.40;52.20;;;26.15;34.70;98658.69;4849422;28;124567;-88
2022/06/15 08:23:58;;;;;;;13.00;5.57;;;25.40;52.10;;;26.16;35.03;98654.59;4843134;28;119090;-89
2022/06/15 08:26:37;;;;;;;10.07;5.20;;;25.50;52.10;;;26.18;35.15;98657.81;4857888;28;118834;-90
2022/06/15 08:29:11;;;;;;;10.00;4.03;;;25.50;52.10;;;26.21;34.72;98657.78;4840769;28;124072;-88
2022/06/15 08:31:37;;;;;;;4.90;3.37;;;25.50;52.00;;;26.29;34.68;98652.84;4859827;28;122960;-88
2022/06/15 08:34:05;;;;;;;7.97;3.30;;;25.60;52.10;;;26.36;35.02;98654.81;4859304;28;118413;-86
2022/06/15 08:36:32;;;;;;;5.63;2.80;;;25.60;52.00;;;26.41;34.53;98660.81;4859670;28;118825;-87
2022/06/15 08:38:59;;;;;;;6.00;3.30;;;25.70;51.90;;;26.48;34.37;98650.59;4847449;28;123940;-89
2022/06/15 08:41:38;;;;;;;5.90;2.90;;;25.70;51.80;;;26.54;34.69;98651.75;4846661;28;123821;-88
2022/06/15 08:45:11;;;;;;;5.77;2.87;;;25.80;51.70;;;26.57;34.19;98657.41;4845535;28;119466;-90
2022/06/15 08:47:44;;;;;;;4.63;2.70;;;25.90;51.50;;;26.61;34.30;98646.00;4813599;28;118787;-88
2022/06/15 08:50:36;;;;;;;3.43;2.73;;;25.90;51.60;;;26.63;34.53;98650.03;4856403;28;124154;-88
2022/06/15 08:53:30;;;;;;;3.90;3.00;;;26.00;51.50;;;26.68;34.60;98654.44;4844967;28;123779;-89
2022/06/15 08:56:08;;;;;;;4.43;2.53;;;26.00;51.60;;;26.77;34.26;98656.75;4855961;28;119000;-87
2022/06/15 08:59:13;;;;;;;2.37;1.87;;;26.00;51.70;;;26.81;34.05;98657.47;4864947;28;119355;-86
2022/06/15 09:01:55;;;;;;;3.97;2.90;;;26.10;51.50;;;26.88;34.30;98661.03;4858366;28;124273;-87
2022/06/15 09:04:30;;;;;;;6.00;3.30;;;26.20;51.50;;;26.92;34.09;98663.00;4848546;28;123926;-87
2022/06/15 09:07:22;;;;;;;5.60;3.43;;;26.20;51.30;;;26.91;33.76;98658.56;4838624;28;119594;-87
2022/06/15 09:10:27;;;;;;;8.23;4.20;;;26.20;51.00;;;26.88;33.83;98661.03;4844448;28;119226;-87
2022/06/15 09:13:25;;;;;;;7.50;4.10;;;26.30;51.00;;;26.92;34.11;98651.66;4838745;28;124133;-86
2022/06/15 09:16:08;;;;;;;4.33;3.27;;;26.30;51.10;;;26.95;33.74;98662.16;4853830;28;123593;-89
2022/06/15 09:19:01;;;;;;;5.37;3.00;;;26.30;51.00;;;26.99;34.21;98660.09;4859903;28;118823;-86
2022/06/15 09:21:43;;;;;;;4.40;2.90;;;26.30;51.00;;;27.05;33.81;98664.84;4858743;28;119356;-91
2022/06/15 09:24:28;;;;;;;5.87;3.20;;;26.40;51.10;;;27.10;34.17;98664.34;4852699;28;123574;-88
2022/06/15 09:27:01;;;;;;;3.63;2.40;;;26.40;51.00;;;27.17;33.99;98666.34;4858891;28;124074;-88
2022/06/15 09:29:41;;;;;;;2.43;2.20;;;26.50;51.00;;;27.23;33.66;98658.13;4841602;28;119241;-87
2022/06/15 09:32:18;;;;;;;3.83;2.93;;;26.60;50.80;;;27.27;34.06;98656.03;4863670;28;119067;-89
2022/06/15 09:34:55;;;;;;;6.93;3.70;;;26.60;51.40;;;27.30;33.92;98658.03;4849347;28;124386;-88
2022/06/15 09:37:25;;;;;;;6.30;3.13;;;26.60;50.60;;;27.33;33.38;98651.50;4854676;28;124024;-89
2022/06/15 09:39:51;;;;;;;5.17;2.80;;;26.70;50.40;;;27.36;33.40;98650.63;4845813;28;119392;-88
2022/06/15 09:42:48;;;;;;;4.13;2.47;;;26.70;50.10;;;27.36;33.65;98658.34;4860494;28;118099;-88
2022/06/15 09:45:31;;;;;;;7.77;3.20;;;26.80;50.10;;;27.39;33.48;98660.31;4856030;28;123838;-87
2022/06/15 09:48:20;;;;;;;4.23;2.90;;;26.70;50.10;;;27.43;33.51;98649.69;4858517;28;124236;-89
2022/06/15 09:51:01;;;;;;;2.50;2.30;;;26.80;50.00;;;27.47;33.30;98644.78;4856188;28;120203;-89
2022/06/15 09:53:44;;;;;;;3.63;2.60;;;26.80;49.90;;;27.52;33.02;98653.59;4864113;28;119293;-88
2022/06/15 09:56:14;;;;;;;7.10;3.67;;;26.90;49.80;;;27.57;32.88;98649.50;4849348;28;123977;-90
2022/06/15 09:58:55;;;;;;;5.27;3.40;;;26.90;49.70;;;27.62;32.99;98646.16;4839271;28;124596;-89
2022/06/15 10:01:25;;;;;;;5.50;3.27;;;27.00;49.60;;;27.64;32.61;98635.16;4849157;28;119723;-94
2022/06/15 10:03:56;;;;;;;5.33;3.47;;;27.00;49.20;;;27.67;32.73;98648.50;4865549;28;120154;-86
2022/06/15 10:06:41;;;;;;;8.40;3.80;;;27.10;49.20;;;27.71;32.98;98640.72;4861734;28;123835;-82
2022/06/15 10:09:11;;;;;;;5.40;3.80;;;27.10;49.30;;;27.79;32.87;98649.13;4843851;28;123870;-83
2022/06/15 10:11:50;;;;;;;4.60;3.60;;;27.20;49.20;;;27.83;32.28;98645.00;4853778;28;119748;-88
2022/06/15 10:14:23;;;;;;;4.80;3.47;;;27.20;48.70;;;27.84;32.06;98640.94;4840818;28;117518;-87
2022/06/15 10:16:59;;;;;;;5.07;3.37;;;27.20;48.70;;;27.86;32.23;98641.31;4858864;28;124164;-86
2022/06/15 10:19:32;;;;;;;4.40;3.17;;;27.30;48.40;;;27.90;32.34;98632.72;4855338;28;124011;-87
2022/06/15 10:22:11;;;;;;;12.00;3.90;;;27.30;48.50;;;27.95;32.23;98643.56;4848641;28;118894;-88
2022/06/15 10:24:40;;;;;;;4.43;3.10;;;27.40;48.50;;;27.98;32.10;98632.13;4832885;28;117934;-87
2022/06/15 10:27:16;;;;;;;5.07;3.10;;;27.40;48.10;;;28.01;31.84;98639.00;4843651;28;124172;-87
2022/06/15 10:30:06;;;;;;;4.57;3.33;;;27.40;48.00;;;28.06;31.91;98637.69;4861097;28;124410;-88
2022/06/15 10:32:39;;;;;;;4.30;3.20;;;27.50;48.00;;;28.12;31.75;98636.75;4848551;28;118281;-86
2022/06/15 10:35:17;;;;;;;3.73;2.93;;;27.50;47.90;;;28.18;31.73;98637.88;4845905;28;119109;-86
2022/06/15 10:37:51;;;;;;;6.60;3.13;;;27.60;47.80;;;28.24;31.47;98634.50;4854184;28;124743;-87
2022/06/15 10:43:49;;;;;;;4.80;2.57;;;27.70;47.30;;;28.30;31.35;98633.56;4852978;28;120466;-86
2022/06/15 10:46:16;;;;;;;2.33;2.13;;;27.70;47.20;;;28.34;31.11;98631.44;4852668;28;119811;-87
2022/06/15 10:48:53;;;;;;;4.50;3.50;;;27.80;47.00;;;28.39;30.77;98630.94;4865351;28;124260;-87